Athelstane, WI (54104)

10:45 PM CDT on October 25, 2014 (GMT -0500)
Athelstane Township | Change Station
CLOSE
Current Station
Personal Weather Station
Location: Athelstane, WI
Elevation: 966 ft
Nearby Weather Stations

Elev 966 ft 45.40 °N, 88.12 °W | Updated 1 second ago

Clear
Clear
48.0 °F
Feels Like 47 °F
N
3.5
Wind Variable Wind from West
Gusts 0.0 mph

Today
High -- | Low -- °F
--% Chance of Precip.
Yesterday
High -- | Low -- °F
Precip. -- in
7:22 AM 5:50 PM
Waxing Crescent, 5% visible
Pressure 29.87 in
Visibility 10.0 miles
Clouds Clear
Windchill 47 °F
Dew Point 20 °F
Humidity 32%
Rainfall 0.00 in
Snow Depth Not available.
UV 0 out of 12
Pollen 1.90 out of 12
Air Quality Not available.
Flu Activity Sporadic
METAR KIMT 260254Z AUTO 31013G21KT 10SM CLR 10/M03 A2985 RMK AO2 SLP114 T01001033 51008

More Conditions Fewer Conditions

Pressure 29.87 in
Visibility 10.0 miles
Clouds Clear
Windchill 47 °F
Dew Point 20 °F
Humidity 32%
Rainfall 0.00 in
Snow Depth Not available.
UV 0 out of 12
Pollen 1.90 out of 12
Air Quality Not available.
Flu Activity Sporadic
METAR KIMT 260254Z AUTO 31013G21KT 10SM CLR 10/M03 A2985 RMK AO2 SLP114 T01001033 51008

More Conditions Fewer Conditions

10-Day Weather Forecast

Almanac

Astronomy

Oct. 25, 2014 Rise Set
Actual Time 7:22 AM CDT 5:50 PM CDT
Civil Twilight 6:52 AM CDT 6:20 PM CDT
Nautical Twilight 6:17 AM CDT 6:55 PM CDT
Astronomical Twilight 5:43 AM CDT 7:29 PM CDT
Moon 9:04 AM CDT (10/25) 7:09 PM CDT (10/25)
Length of Visible Light 11h 28m
Length of Day
10h 28m
Tomorrow will be 2m 57s shorter.
Waxing Crescent, 5% of the Moon is Illuminated
Today
Waxing Crescent
Oct 30
First Quarter
Nov 6
Full
Nov 14
Last Quarter
Nov 22
New

Today's Extremes

State Highs State Lows

Community

WunderPhotos

Upload Photos

1,765,095 photos uploaded!

Nearby

Snow Depth

Station Depth Elevation
No new snow has been reported.

Earthquake Activity

City Distance Mag. Time & Date
No recent earthquake activity has been reported nearby.
Minimum magnitude displayed is 2.5.

Coastal Water Temperatures

Place Temperature
No Stations Reporting

Nearby Weather Stations